Time;durP1;ratioP1;P1;durP2;ratioP2;P2;SDS_P1;SDS_P2;PMS_P1;PMS_P2;Temp;Humidity;BMP_temperature;BMP_pressure;BME280_temperature;BME280_humidity;BME280_pressure;Samples;Min_cycle;Max_cycle;Signal;HPM_P1;HPM_P2
2022/05/18 00:00:07;;;;;;;19.35;10.27;;;18.00;97.20;;;;;;5072955;28;20051;-78
2022/05/18 00:02:33;;;;;;;22.38;10.65;;;;;;;;;;5072983;28;20041;-78
2022/05/18 00:04:59;;;;;;;21.50;10.65;;;;;;;;;;5073099;28;20048;-77
2022/05/18 00:07:25;;;;;;;21.58;10.60;;;;;;;;;;5073118;28;20044;-77
2022/05/18 00:09:51;;;;;;;22.42;9.98;;;;;;;;;;5056161;28;20048;-78
2022/05/18 00:12:18;;;;;;;24.90;11.43;;;17.70;97.40;;;;;;5072985;28;20072;-77
2022/05/18 00:14:44;;;;;;;20.63;10.48;;;;;;;;;;5072991;28;20131;-77
2022/05/18 00:17:10;;;;;;;20.75;10.00;;;;;;;;;;5055693;28;20045;-77
2022/05/18 00:19:36;;;;;;;21.27;9.82;;;;;;;;;;5072418;28;20078;-77
2022/05/18 00:22:03;;;;;;;21.50;10.02;;;17.70;97.60;;;;;;5072540;28;20052;-78
2022/05/18 00:24:29;;;;;;;25.83;10.00;;;;;;;;;;5072667;28;20040;-78
2022/05/18 00:26:55;;;;;;;19.73;10.05;;;;;;;;;;5055731;28;20052;-78
2022/05/18 00:29:21;;;;;;;23.85;10.45;;;;;;;;;;5055593;28;20123;-78
2022/05/18 00:31:47;;;;;;;21.65;10.88;;;;;;;;;;5072589;28;20082;-78
2022/05/18 00:34:14;;;;;;;20.98;10.50;;;17.70;97.30;;;;;;5055808;28;20165;-78
2022/05/18 00:36:40;;;;;;;18.65;11.05;;;;;;;;;;5072360;28;20128;-78
2022/05/18 00:39:06;;;;;;;22.27;11.75;;;;;;;;;;5055642;28;20131;-78
2022/05/18 00:41:33;;;;;;;22.42;11.05;;;;;;;;;;5072606;28;20079;-78
2022/05/18 00:43:59;;;;;;;21.35;11.13;;;;;;;;;;5072180;28;20041;-78
2022/05/18 00:46:25;;;;;;;21.38;11.55;;;17.50;97.70;;;;;;5072499;28;20428;-78
2022/05/18 00:48:53;;;;;;;19.25;11.30;;;17.60;97.90;;;;;;5071997;28;20051;-78
2022/05/18 00:51:32;;;;;;;21.85;10.68;;;17.60;98.30;;;;;;5072391;28;20385;-77
2022/05/18 00:54:09;;;;;;;18.88;10.60;;;18.30;99.90;;;;;;5072407;28;20084;-77
2022/05/18 00:57:00;;;;;;;29.00;11.63;;;18.60;99.90;;;;;;5072165;28;20083;-78
2022/05/18 00:59:31;;;;;;;23.98;10.65;;;17.20;98.10;;;;;;5071949;28;20074;-78
2022/05/18 01:01:59;;;;;;;21.58;11.20;;;17.40;98.20;;;;;;5055288;28;20044;-78
2022/05/18 01:04:26;;;;;;;25.65;11.50;;;;;;;;;;5072280;28;20053;-78
2022/05/18 01:07:13;;;;;;;18.38;10.65;;;17.30;97.30;;;;;;5071989;28;20048;-78
2022/05/18 01:09:45;;;;;;;25.17;11.25;;;17.30;98.50;;;;;;5071953;28;20595;-78
2022/05/18 01:12:17;;;;;;;26.80;12.20;;;17.40;98.50;;;;;;5071971;28;20044;-78
2022/05/18 01:15:04;;;;;;;18.48;11.27;;;17.40;98.70;;;;;;5072084;28;20043;-78
2022/05/18 01:17:32;;;;;;;21.70;12.15;;;;;;;;;;5048273;28;20049;-77
2022/05/18 01:20:00;;;;;;;25.52;11.50;;;17.30;98.50;;;;;;5032222;28;20041;-78
2022/05/18 01:22:38;;;;;;;20.45;11.50;;;16.30;99.90;;;;;;5048442;28;20049;-78
2022/05/18 01:25:28;;;;;;;23.50;11.55;;;17.30;97.60;;;;;;5048475;28;20102;-78
2022/05/18 01:27:56;;;;;;;22.55;10.88;;;17.20;98.10;;;;;;5048464;28;20081;-78
2022/05/18 01:30:22;;;;;;;23.73;12.02;;;;;;;;;;5031745;28;20049;-78
2022/05/18 01:32:53;;;;;;;25.23;11.82;;;17.20;98.70;;;;;;5035340;28;20532;-78
2022/05/18 01:35:22;;;;;;;24.88;11.40;;;17.30;98.70;;;;;;5019350;28;20044;-78
2022/05/18 01:37:49;;;;;;;23.45;12.02;;;;;;;;;;5052449;28;20041;-78
2022/05/18 01:40:34;;;;;;;20.70;12.20;;;17.30;99.00;;;;;;5035726;28;20520;-78
2022/05/18 01:43:12;;;;;;;27.98;12.32;;;17.30;99.10;;;;;;5052346;28;20056;-78
2022/05/18 01:45:38;;;;;;;21.88;11.70;;;;;;;;;;5052579;28;20099;-77
2022/05/18 01:48:13;;;;;;;24.35;12.15;;;17.30;99.10;;;;;;5035710;28;20103;-78
2022/05/18 01:50:39;;;;;;;27.55;11.90;;;;;;;;;;5052000;28;20075;-78
2022/05/18 01:53:05;;;;;;;19.67;11.45;;;18.30;99.90;;;;;;5035652;28;20048;-78
2022/05/18 01:55:32;;;;;;;21.88;11.68;;;16.10;99.90;;;;;;5052514;28;20045;-77
2022/05/18 01:57:58;;;;;;;25.90;12.55;;;17.20;98.30;;;;;;5052431;28;20068;-78
2022/05/18 02:00:25;;;;;;;26.63;12.75;;;18.20;99.90;;;;;;5052232;28;20049;-77
2022/05/18 02:02:51;;;;;;;27.30;12.23;;;;;;;;;;5052056;28;20081;-77
2022/05/18 02:05:17;;;;;;;23.58;12.63;;;;;;;;;;5035590;28;20045;-79
2022/05/18 02:07:43;;;;;;;26.52;13.07;;;17.70;99.90;;;;;;5035527;28;20122;-77
2022/05/18 02:10:10;;;;;;;27.35;12.30;;;;;;;;;;5051695;28;20486;-78
2022/05/18 02:12:36;;;;;;;26.38;12.60;;;16.30;99.90;;;;;;5035443;28;20067;-78
2022/05/18 02:15:03;;;;;;;23.33;12.57;;;;;;;;;;5052364;28;20045;-78
2022/05/18 02:17:30;;;;;;;24.58;12.23;;;;;;;;;;5074396;28;20060;-78
2022/05/18 02:19:57;;;;;;;25.80;13.65;;;16.90;99.90;;;;;;5074780;28;20567;-78
2022/05/18 02:22:24;;;;;;;32.22;14.23;;;17.00;98.60;;;;;;5058910;28;20427;-78
2022/05/18 02:24:50;;;;;;;27.20;12.70;;;;;;;;;;5058282;28;20093;-78
2022/05/18 02:27:16;;;;;;;21.67;12.00;;;;;;;;;;5075077;28;20102;-77
2022/05/18 02:29:42;;;;;;;26.75;14.15;;;;;;;;;;5074796;28;20041;-78
2022/05/18 02:32:09;;;;;;;27.42;13.65;;;15.80;99.90;;;;;;5074690;28;20040;-78
2022/05/18 02:34:35;;;;;;;26.17;14.25;;;;;;;;;;5074830;28;20053;-78
2022/05/18 02:37:01;;;;;;;29.92;15.00;;;;;;;;;;5074749;28;20370;-78
2022/05/18 02:39:27;;;;;;;28.25;14.68;;;;;;;;;;5074649;28;20043;-78
2022/05/18 02:41:53;;;;;;;26.30;14.65;;;;;;;;;;5057816;28;20080;-78
2022/05/18 02:44:19;;;;;;;27.67;15.10;;;;;;;;;;5073389;28;20040;-78
2022/05/18 02:46:46;;;;;;;26.75;14.95;;;;;;;;;;5057736;28;20047;-78
2022/05/18 02:49:12;;;;;;;27.95;15.38;;;;;;;;;;5074598;28;20032;-78
2022/05/18 02:51:41;;;;;;;35.15;14.98;;;;;;;;;;5074446;28;20162;-78
2022/05/18 02:56:53;;;;;;;26.75;15.30;;;;;;;;;;5074427;28;20484;-77
2022/05/18 02:59:19;;;;;;;29.70;15.00;;;16.60;99.30;;;;;;5074481;28;20032;-77
2022/05/18 03:01:46;;;;;;;30.38;14.68;;;16.50;99.20;;;;;;5057537;28;20040;-78
2022/05/18 03:04:13;;;;;;;33.20;16.88;;;16.60;99.30;;;;;;5074188;28;20051;-78
2022/05/18 03:06:39;;;;;;;32.25;14.63;;;;;;;;;;5057705;28;20048;-78
2022/05/18 03:09:05;;;;;;;23.40;15.02;;;;;;;;;;5057476;28;20041;-78
2022/05/18 03:11:32;;;;;;;28.25;14.95;;;;;;;;;;5074060;28;20047;-78
2022/05/18 03:13:58;;;;;;;29.63;15.02;;;;;;;;;;5073973;28;20037;-77
2022/05/18 03:16:26;;;;;;;26.85;15.63;;;16.40;99.90;;;;;;5040504;28;20373;-78
2022/05/18 03:18:52;;;;;;;26.77;15.00;;;;;;;;;;5057043;28;20220;-78
2022/05/18 03:24:03;;;;;;;31.58;15.25;;;;;;;;;;5073636;28;20052;-77
2022/05/18 03:26:29;;;;;;;26.88;14.43;;;;;;;;;;5056854;28;20396;-77
2022/05/18 03:28:56;;;;;;;33.15;15.35;;;16.10;99.90;;;;;;5073700;28;20037;-77
2022/05/18 03:31:24;;;;;;;29.20;15.85;;;16.10;99.70;;;;;;5073639;28;20072;-77
2022/05/18 03:33:51;;;;;;;26.73;14.77;;;16.20;99.90;;;;;;5073806;28;20102;-77
2022/05/18 03:36:18;;;;;;;31.75;15.70;;;16.20;99.90;;;;;;5073637;28;20036;-78
2022/05/18 03:38:45;;;;;;;33.22;15.82;;;16.00;99.90;;;;;;5057092;28;20040;-78
2022/05/18 03:41:12;;;;;;;27.35;15.50;;;;;;;;;;5057015;28;20048;-78
2022/05/18 03:43:38;;;;;;;34.00;16.48;;;;;;;;;;5073622;28;20097;-77
2022/05/18 03:46:05;;;;;;;30.17;15.43;;;16.30;99.90;;;;;;5040214;28;20041;-77
2022/05/18 03:48:32;;;;;;;30.40;15.32;;;;;;;;;;5073142;28;20074;-78
2022/05/18 03:50:59;;;;;;;24.38;15.63;;;16.10;99.90;;;;;;5073309;28;20427;-77
2022/05/18 03:53:25;;;;;;;31.63;15.75;;;;;;;;;;5073069;28;20037;-78
2022/05/18 03:55:52;;;;;;;31.60;15.80;;;;;;;;;;5056423;28;20137;-77
2022/05/18 03:58:18;;;;;;;33.50;16.38;;;;;;;;;;5073068;28;20037;-77
2022/05/18 04:00:46;;;;;;;30.02;16.05;;;15.60;99.90;;;;;;5056408;28;20040;-77
2022/05/18 04:03:13;;;;;;;30.33;15.82;;;;;;;;;;5040345;28;20055;-78
2022/05/18 04:05:40;;;;;;;30.67;16.38;;;;;;;;;;5072901;28;20507;-77
2022/05/18 04:08:08;;;;;;;32.35;16.50;;;17.10;99.90;;;;;;5056238;28;20040;-77
2022/05/18 04:10:34;;;;;;;28.98;15.00;;;;;;;;;;5072862;28;20391;-78
2022/05/18 04:13:00;;;;;;;31.17;15.90;;;;;;;;;;5073189;28;20044;-78
2022/05/18 04:15:28;;;;;;;33.85;16.92;;;16.20;99.90;;;;;;5072591;28;20047;-77
2022/05/18 04:17:55;;;;;;;43.50;16.45;;;;;;;;;;5072574;28;20037;-77
2022/05/18 04:20:23;;;;;;;31.17;15.93;;;16.40;99.90;;;;;;5056296;28;20443;-77
2022/05/18 04:22:49;;;;;;;34.67;16.00;;;;;;;;;;5072958;28;20071;-77
2022/05/18 04:25:22;;;;;;;37.88;16.50;;;16.20;99.90;;;;;;5055811;28;20120;-77
2022/05/18 04:27:51;;;;;;;;;;;16.40;99.90;;;;;;5056307;28;20480;-78
2022/05/18 04:30:20;;;;;;;31.13;14.75;;;16.20;99.90;;;;;;5055832;28;20913;-78
2022/05/18 04:32:46;;;;;;;25.80;14.95;;;;;;;;;;5055732;28;20040;-78
2022/05/18 04:35:17;;;;;;;27.75;15.73;;;16.30;99.90;;;;;;5072333;28;20547;-78
2022/05/18 04:37:43;;;;;;;35.63;16.38;;;;;;;;;;5072396;28;20043;-78
2022/05/18 04:40:09;;;;;;;31.52;17.63;;;16.00;99.90;;;;;;5055894;28;20397;-78
2022/05/18 04:42:36;;;;;;;39.65;16.50;;;;;;;;;;5055574;28;20040;-77
2022/05/18 04:45:03;;;;;;;47.50;16.98;;;16.30;99.90;;;;;;5055821;28;20110;-78
2022/05/18 04:47:29;;;;;;;31.48;15.48;;;;;;;;;;5072309;28;20079;-78
2022/05/18 04:49:58;;;;;;;33.00;17.42;;;;;;;;;;5072285;28;20048;-78
2022/05/18 04:52:24;;;;;;;31.85;18.45;;;;;;;;;;5072125;28;20040;-78
2022/05/18 04:54:50;;;;;;;32.25;17.48;;;;;;;;;;5072193;28;20123;-78
2022/05/18 04:57:17;;;;;;;31.65;18.50;;;16.50;99.90;;;;;;5072108;28;20459;-78
2022/05/18 04:59:44;;;;;;;30.60;17.70;;;;;;;;;;5072093;28;20040;-78
2022/05/18 05:02:10;;;;;;;34.28;17.48;;;;;;;;;;5072003;28;20123;-78
2022/05/18 05:04:37;;;;;;;30.98;17.67;;;;;;;;;;5072069;28;20070;-78
2022/05/18 05:07:04;;;;;;;40.25;19.27;;;16.50;99.90;;;;;;5071219;28;20127;-78
2022/05/18 05:09:30;;;;;;;32.40;17.90;;;;;;;;;;5072124;28;20106;-78
2022/05/18 05:11:56;;;;;;;32.90;18.17;;;;;;;;;;5071935;28;20037;-79
2022/05/18 05:14:23;;;;;;;36.58;19.08;;;15.50;99.90;;;;;;5055308;28;20508;-78
2022/05/18 05:16:51;;;;;;;33.50;18.80;;;16.60;99.90;;;;;;5055156;28;20053;-78
2022/05/18 05:19:17;;;;;;;34.78;18.67;;;;;;;;;;5071822;28;20048;-79
2022/05/18 05:21:44;;;;;;;32.50;18.90;;;;;;;;;;5071685;28;20040;-78
2022/05/18 05:24:11;;;;;;;35.08;19.38;;;16.70;99.90;;;;;;5071788;28;20080;-79
2022/05/18 05:26:37;;;;;;;32.95;18.58;;;16.50;99.90;;;;;;5038591;28;20040;-78
2022/05/18 05:29:04;;;;;;;37.40;20.38;;;16.10;99.90;;;;;;5071928;28;20055;-78
2022/05/18 05:31:30;;;;;;;36.78;20.85;;;;;;;;;;5055053;28;20128;-78
2022/05/18 05:33:56;;;;;;;41.28;20.98;;;16.90;99.90;;;;;;5071918;28;20094;-78
2022/05/18 05:36:22;;;;;;;41.17;21.10;;;;;;;;;;5071962;28;20132;-78
2022/05/18 05:38:49;;;;;;;42.20;21.80;;;;;;;;;;5055140;28;20124;-78
2022/05/18 05:41:15;;;;;;;37.10;21.13;;;;;;;;;;5071890;28;20547;-79
2022/05/18 05:43:42;;;;;;;38.75;21.58;;;;;;;;;;5071723;28;20123;-79
2022/05/18 05:46:10;;;;;;;42.75;22.13;;;17.40;99.90;;;;;;5071743;28;20040;-78
2022/05/18 05:48:37;;;;;;;39.92;21.08;;;;;;;;;;5071616;28;20044;-78
2022/05/18 05:51:04;;;;;;;37.75;21.42;;;17.60;99.90;;;;;;5071551;28;20032;-78
2022/05/18 05:53:32;;;;;;;40.05;21.85;;;;;;;;;;5054799;28;20072;-78
2022/05/18 05:55:59;;;;;;;49.25;23.23;;;;;;;;;;5055175;28;20043;-78
2022/05/18 05:58:26;;;;;;;40.17;22.52;;;;;;;;;;5071611;28;20124;-79
2022/05/18 06:00:52;;;;;;;44.92;22.30;;;;;;;;;;5071475;28;20098;-79
2022/05/18 06:03:19;;;;;;;45.13;22.42;;;17.70;99.90;;;;;;5071431;28;20496;-77
2022/05/18 06:05:45;;;;;;;39.65;23.00;;;;;;;;;;5071451;28;20553;-77
2022/05/18 06:08:11;;;;;;;42.33;22.90;;;;;;;;;;5054624;28;20093;-77
2022/05/18 06:10:38;;;;;;;43.92;22.88;;;17.70;99.90;;;;;;5054510;28;20048;-78
2022/05/18 06:13:09;;;;;;;49.15;24.35;;;17.60;99.90;;;;;;5071237;28;20036;-78
2022/05/18 06:15:35;;;;;;;47.20;23.80;;;;;;;;;;5071316;28;20037;-78
2022/05/18 06:18:03;;;;;;;44.45;23.35;;;;;;;;;;5073142;28;20125;-77
2022/05/18 06:20:29;;;;;;;50.25;25.13;;;18.00;99.90;;;;;;5075242;28;20469;-77
2022/05/18 06:22:58;;;;;;;50.30;25.10;;;18.00;99.90;;;;;;5075201;28;20460;-78
2022/05/18 06:25:24;;;;;;;45.88;25.10;;;;;;;;;;5074912;28;20557;-78
2022/05/18 06:27:50;;;;;;;42.75;23.90;;;;;;;;;;5074959;28;20046;-77
2022/05/18 06:30:16;;;;;;;48.45;26.48;;;;;;;;;;5074707;28;20128;-78
2022/05/18 06:32:42;;;;;;;47.15;25.75;;;;;;;;;;5074666;28;20047;-78
2022/05/18 06:35:08;;;;;;;55.85;24.90;;;;;;;;;;5074716;28;20032;-78
2022/05/18 06:37:35;;;;;;;51.83;25.90;;;;;;;;;;5058266;28;20071;-78
2022/05/18 06:40:05;;;;;;;52.30;27.17;;;19.10;99.90;;;;;;5074523;28;20390;-78
2022/05/18 06:42:32;;;;;;;44.58;25.75;;;;;;;;;;5074735;28;20041;-77
2022/05/18 06:44:59;;;;;;;50.13;25.88;;;;;;;;;;5074513;28;20381;-78
2022/05/18 06:47:25;;;;;;;53.35;28.15;;;17.40;99.90;;;;;;5057682;28;20045;-78
2022/05/18 06:49:52;;;;;;;51.53;27.00;;;;;;;;;;5057516;28;20048;-78
2022/05/18 06:52:18;;;;;;;57.75;26.63;;;;;;;;;;5074412;28;20045;-78
2022/05/18 06:54:45;;;;;;;56.90;29.50;;;;;;;;;;5057659;28;20040;-78
2022/05/18 06:57:11;;;;;;;54.63;28.67;;;;;;;;;;5074261;28;20040;-78
2022/05/18 06:59:37;;;;;;;62.20;29.50;;;;;;;;;;5057633;28;20040;-78
2022/05/18 07:02:03;;;;;;;63.83;29.42;;;;;;;;;;5074360;28;20041;-75
2022/05/18 07:04:29;;;;;;;59.33;28.75;;;;;;;;;;5057824;28;20044;-75
2022/05/18 07:06:55;;;;;;;51.33;28.80;;;;;;;;;;5057810;28;20123;-75
2022/05/18 07:09:22;;;;;;;55.25;26.80;;;18.80;99.90;;;;;;5073857;28;20044;-75
2022/05/18 07:11:49;;;;;;;48.17;26.75;;;18.90;99.90;;;;;;5074133;28;20483;-75
2022/05/18 07:14:19;;;;;;;52.38;25.45;;;;;;;;;;5057051;28;20037;-75
2022/05/18 07:16:45;;;;;;;50.75;25.23;;;;;;;;;;5073475;28;20048;-74
2022/05/18 07:19:12;;;;;;;51.92;24.05;;;19.30;99.30;;;;;;5073796;28;20079;-75
2022/05/18 07:21:39;;;;;;;55.97;24.42;;;;;;;;;;5040719;28;20132;-75
2022/05/18 07:24:05;;;;;;;45.42;23.58;;;19.20;99.90;;;;;;5073732;28;20052;-75
2022/05/18 07:26:31;;;;;;;56.75;25.52;;;;;;;;;;5057224;28;20040;-75
2022/05/18 07:28:58;;;;;;;51.58;24.80;;;;;;;;;;5056155;28;20043;-75
2022/05/18 07:31:24;;;;;;;46.55;21.98;;;;;;;;;;5073983;28;20532;-75
2022/05/18 07:33:50;;;;;;;54.35;24.67;;;;;;;;;;5073774;28;20037;-75
2022/05/18 07:36:18;;;;;;;46.03;24.45;;;19.60;98.30;;;;;;5040425;28;20041;-76
2022/05/18 07:38:44;;;;;;;52.47;25.23;;;;;;;;;;5057168;28;20048;-75
2022/05/18 07:41:13;;;;;;;45.83;24.13;;;20.10;99.90;;;;;;5073574;28;20170;-76
2022/05/18 07:43:40;;;;;;;48.10;24.90;;;19.50;97.60;;;;;;5073569;28;20483;-75
2022/05/18 07:46:07;;;;;;;51.35;25.30;;;;;;;;;;5057263;28;20035;-75
2022/05/18 07:48:33;;;;;;;50.20;26.48;;;;;;;;;;5040149;28;20508;-75
2022/05/18 07:50:59;;;;;;;50.25;24.70;;;;;;;;;;5056753;28;20477;-75
2022/05/18 07:53:26;;;;;;;57.65;27.27;;;20.30;99.90;;;;;;5073531;28;20043;-75
2022/05/18 07:55:52;;;;;;;57.00;27.65;;;;;;;;;;5056608;28;20090;-75
2022/05/18 07:58:20;;;;;;;53.78;26.17;;;20.70;99.90;;;;;;5056520;28;20048;-75
2022/05/18 08:00:46;;;;;;;61.83;29.85;;;;;;;;;;5056425;28;20044;-75
2022/05/18 08:03:13;;;;;;;58.83;28.13;;;20.00;96.50;;;;;;5056369;28;20484;-75
2022/05/18 08:05:44;;;;;;;55.22;28.63;;;19.80;98.60;;;;;;5072970;28;20055;-76
2022/05/18 08:08:14;;;;;;;66.55;29.88;;;20.20;96.50;;;;;;5056634;28;20388;-75
2022/05/18 08:16:10;;;;;;;61.90;28.58;;;;;;;;;;5072745;28;20528;-74
2022/05/18 08:18:36;;;;;;;64.97;33.00;;;;;;;;;;5055897;28;20131;-74
2022/05/18 08:21:03;;;;;;;74.78;30.77;;;20.70;96.00;;;;;;5056244;28;20040;-75
2022/05/18 08:23:29;;;;;;;64.40;33.47;;;21.20;99.90;;;;;;5056319;28;20433;-75
2022/05/18 08:25:56;;;;;;;68.13;31.52;;;20.80;97.10;;;;;;5039574;28;20079;-74
2022/05/18 08:28:23;;;;;;;63.58;30.77;;;;;;;;;;5055905;28;20090;-75
2022/05/18 08:30:49;;;;;;;58.58;30.17;;;;;;;;;;5072494;28;20397;-76
2022/05/18 08:33:15;;;;;;;55.28;27.00;;;;;;;;;;5055948;28;20040;-76
2022/05/18 08:35:44;;;;;;;56.55;27.58;;;21.50;99.90;;;;;;5055859;28;20040;-76
2022/05/18 08:38:11;;;;;;;61.63;27.92;;;21.20;96.00;;;;;;5055998;28;20044;-76
2022/05/18 08:40:52;;;;;;;60.47;28.40;;;21.80;99.60;;;;;;5055731;28;20054;-75
2022/05/18 08:43:31;;;;;;;61.67;27.40;;;21.50;95.70;;;;;;5072474;28;20044;-76
2022/05/18 08:46:04;;;;;;;58.58;27.55;;;21.40;94.30;;;;;;5072273;28;20101;-76
2022/05/18 08:48:44;;;;;;;63.63;29.73;;;20.70;98.70;;;;;;5055843;28;20048;-76
2022/05/18 08:51:26;;;;;;;59.85;28.45;;;22.20;96.00;;;;;;5055889;28;20125;-76
2022/05/18 08:54:11;;;;;;;50.55;27.75;;;22.50;98.90;;;;;;5072273;28;20191;-75
2022/05/18 08:56:40;;;;;;;54.47;27.05;;;21.20;98.50;;;;;;5072459;28;20036;-76
2022/05/18 08:59:13;;;;;;;58.20;30.27;;;22.00;94.40;;;;;;5055783;28;20396;-76
2022/05/18 09:01:42;;;;;;;64.80;32.72;;;21.50;97.90;;;;;;5072123;28;20036;-76
2022/05/18 09:04:16;;;;;;;64.00;32.28;;;22.50;97.90;;;;;;5071979;28;20049;-76
2022/05/18 09:07:03;;;;;;;66.10;34.17;;;22.20;92.80;;;;;;5055445;28;20063;-76
2022/05/18 09:12:39;;;;;;;66.20;33.35;;;22.70;97.40;;;;;;5072128;28;20095;-76
2022/05/18 09:15:07;;;;;;;67.80;31.63;;;21.80;97.20;;;;;;5071980;28;20045;-76
2022/05/18 09:17:50;;;;;;;60.05;31.52;;;22.50;92.10;;;;;;5054934;28;20064;-75
2022/05/18 09:20:37;;;;;;;52.97;29.08;;;21.80;92.80;;;;;;5055350;28;20102;-76
2022/05/18 09:23:03;;;;;;;65.35;28.58;;;;;;;;;;5055245;28;20036;-76
2022/05/18 09:25:49;;;;;;;50.88;26.90;;;22.50;97.20;;;;;;5071857;28;20044;-76
2022/05/18 09:28:20;;;;;;;51.35;26.48;;;22.20;92.10;;;;;;5071853;28;20040;-76
2022/05/18 09:31:24;;;;;;;60.50;28.75;;;21.90;96.90;;;;;;5071655;28;20043;-76
2022/05/18 09:33:56;;;;;;;65.30;30.70;;;22.80;97.30;;;;;;5071988;28;20373;-75
2022/05/18 09:36:44;;;;;;;58.60;29.85;;;22.30;92.20;;;;;;5055215;28;20044;-75
2022/05/18 09:39:17;;;;;;;66.20;29.48;;;22.80;97.20;;;;;;5055090;28;20436;-75
2022/05/18 09:41:56;;;;;;;65.75;33.20;;;23.00;96.50;;;;;;5071858;28;20177;-75
2022/05/18 09:44:40;;;;;;;68.13;33.33;;;22.30;91.90;;;;;;5054930;28;20052;-78
2022/05/18 09:47:10;;;;;;;66.88;33.08;;;22.40;92.80;;;;;;5071643;28;20481;-78
2022/05/18 09:49:51;;;;;;;60.35;31.20;;;22.80;92.90;;;;;;5071353;28;20083;-79
2022/05/18 09:52:20;;;;;;;69.03;32.75;;;22.30;96.60;;;;;;5055877;28;20040;-79
2022/05/18 09:54:46;;;;;;;71.78;35.47;;;21.90;92.50;;;;;;5075570;28;20045;-79
2022/05/18 09:57:27;;;;;;;85.35;38.70;;;22.50;93.70;;;;;;5042324;28;20048;-78
2022/05/18 09:59:57;;;;;;;68.78;33.75;;;23.20;94.10;;;;;;5058677;28;20055;-79
2022/05/18 10:07:58;;;;;;;90.20;38.25;;;22.80;93.20;;;;;;5075111;28;20052;-79
2022/05/18 10:10:34;;;;;;;74.22;33.97;;;23.20;92.30;;;;;;5058562;28;20041;-79
2022/05/18 10:13:00;;;;;;;91.35;36.13;;;;;;;;;;5058792;28;20362;-75
2022/05/18 10:15:38;;;;;;;77.95;37.70;;;23.60;91.90;;;;;;5058486;28;20044;-75
2022/05/18 10:18:23;;;;;;;63.08;34.13;;;23.40;96.30;;;;;;5058091;28;20052;-75
2022/05/18 10:21:13;;;;;;;71.10;34.97;;;23.70;95.60;;;;;;5058584;28;20036;-75
2022/05/18 10:23:51;;;;;;;75.68;34.17;;;23.30;91.00;;;;;;5074979;28;20106;-75
2022/05/18 10:26:33;;;;;;;60.83;29.33;;;23.30;90.90;;;;;;5058312;28;20037;-76
2022/05/18 10:29:06;;;;;;;58.47;25.98;;;23.90;95.90;;;;;;5074812;28;20134;-76
2022/05/18 10:31:33;;;;;;;59.33;30.23;;;23.00;95.40;;;;;;5058116;28;20116;-75
2022/05/18 10:34:28;;;;;;;67.20;30.30;;;23.80;90.40;;;;;;5058067;28;20033;-76
2022/05/18 10:37:00;;;;;;;61.95;27.65;;;24.20;94.70;;;;;;5074978;28;20388;-76
2022/05/18 10:39:29;;;;;;;;;;;23.70;91.00;;;;;;5075057;28;20048;-75
2022/05/18 10:41:56;;;;;;;58.05;26.95;;;;;;;;;;5074938;28;19943;-76
2022/05/18 10:44:27;;;;;;;51.10;25.55;;;23.30;90.90;;;;;;5058140;28;20071;-76
2022/05/18 10:46:54;;;;;;;57.25;28.90;;;;;;;;;;5075196;28;20443;-75
2022/05/18 10:49:36;;;;;;;61.15;25.30;;;23.30;94.90;;;;;;5057717;28;20044;-79
2022/05/18 10:52:15;;;;;;;50.72;23.77;;;23.80;95.20;;;;;;5041215;28;20184;-78
2022/05/18 10:54:53;;;;;;;63.83;26.63;;;23.60;90.70;;;;;;5058008;28;20044;-79
2022/05/18 10:57:27;;;;;;;54.90;25.55;;;24.00;94.40;;;;;;5074426;28;20047;-79
2022/05/18 11:00:08;;;;;;;63.92;25.83;;;23.70;94.30;;;;;;5057688;28;20048;-78
2022/05/18 11:03:04;;;;;;;52.72;23.75;;;23.60;94.40;;;;;;5057749;28;20149;-79
2022/05/18 11:05:45;;;;;;;55.60;23.70;;;23.50;89.20;;;;;;5073697;28;20545;-79
2022/05/18 11:08:14;;;;;;;64.07;27.48;;;23.60;94.20;;;;;;5057597;28;20076;-79
2022/05/18 11:11:02;;;;;;;57.22;25.20;;;23.20;94.00;;;;;;5074223;28;20078;-79
2022/05/18 11:14:05;;;;;;;57.60;25.17;;;23.30;88.30;;;;;;5074920;28;20119;-78
2022/05/18 11:16:37;;;;;;;55.05;24.98;;;23.90;94.20;;;;;;5057059;28;20131;-79
2022/05/18 11:19:24;;;;;;;68.57;30.10;;;22.70;90.60;;;;;;5074033;28;20048;-78
2022/05/18 11:22:12;;;;;;;56.65;27.30;;;24.20;93.80;;;;;;5074171;28;20040;-78
2022/05/18 11:24:59;;;;;;;75.40;32.08;;;24.30;93.50;;;;;;5057209;28;20043;-79
2022/05/18 11:27:49;;;;;;;63.35;27.00;;;23.40;93.10;;;;;;5057090;28;20132;-78
2022/05/18 11:30:42;;;;;;;55.53;26.25;;;23.90;93.40;;;;;;5073737;28;20499;-78
2022/05/18 11:33:25;;;;;;;59.92;26.85;;;22.80;90.20;;;;;;5073418;28;20412;-78
2022/05/18 11:36:11;;;;;;;66.72;29.33;;;24.20;93.40;;;;;;5073574;28;20492;-78
2022/05/18 11:38:37;;;;;;;61.45;30.08;;;;;;;;;;5073557;28;20041;-79
2022/05/18 11:41:27;;;;;;;56.75;25.45;;;23.20;86.20;;;;;;5056991;28;20040;-78
2022/05/18 11:44:05;;;;;;;56.95;25.38;;;24.20;93.00;;;;;;5056785;28;20052;-78
2022/05/18 11:46:39;;;;;;;64.50;26.75;;;24.70;92.90;;;;;;5073487;28;20041;-78
2022/05/18 11:49:53;;;;;;;59.00;27.75;;;24.30;92.50;;;;;;5073191;28;20043;-78
2022/05/18 11:52:29;;;;;;;67.78;27.67;;;24.60;92.50;;;;;;5056200;28;20048;-79
2022/05/18 11:55:38;;;;;;;60.90;25.77;;;23.90;91.50;;;;;;5073186;28;20044;-79
2022/05/18 11:58:26;;;;;;;62.72;27.90;;;24.10;92.60;;;;;;5056766;28;20040;-78
2022/05/18 12:01:04;;;;;;;64.68;28.80;;;24.50;92.60;;;;;;5056713;28;20037;-78
2022/05/18 12:03:48;;;;;;;69.88;27.75;;;24.40;92.60;;;;;;5056652;28;20392;-79
2022/05/18 12:06:23;;;;;;;58.95;24.73;;;23.00;92.50;;;;;;5056305;28;20044;-78
2022/05/18 12:08:58;;;;;;;54.40;27.45;;;23.50;92.70;;;;;;5056495;28;20036;-79
2022/05/18 12:11:44;;;;;;;62.70;28.02;;;24.40;92.90;;;;;;5072774;28;20037;-78
2022/05/18 12:14:27;;;;;;;55.13;25.23;;;23.40;92.70;;;;;;5072827;28;20157;-79
2022/05/18 12:17:06;;;;;;;66.93;28.95;;;23.90;85.20;;;;;;5072585;28;20082;-78
2022/05/18 12:19:56;;;;;;;63.17;27.20;;;23.90;92.50;;;;;;5073169;28;20053;-79
2022/05/18 12:22:29;;;;;;;64.43;28.23;;;24.40;92.80;;;;;;5072977;28;20040;-78
2022/05/18 12:24:55;;;;;;;67.60;31.52;;;24.10;92.70;;;;;;5056022;28;20127;-78
2022/05/18 12:27:23;;;;;;;69.57;34.58;;;24.00;93.00;;;;;;5072903;28;20071;-78
2022/05/18 12:29:53;;;;;;;66.60;30.20;;;22.80;92.80;;;;;;5056048;28;20040;-78
2022/05/18 12:32:20;;;;;;;61.88;32.25;;;23.40;87.90;;;;;;5055936;28;20044;-78
2022/05/18 12:34:53;;;;;;;72.32;31.63;;;22.60;92.80;;;;;;5072446;28;20147;-78
2022/05/18 12:37:51;;;;;;;68.85;29.55;;;23.70;93.40;;;;;;5055752;28;20040;-78
2022/05/18 12:40:26;;;;;;;71.72;30.95;;;23.60;93.40;;;;;;5023768;28;20086;-78
2022/05/18 12:43:01;;;;;;;70.32;29.95;;;23.70;93.60;;;;;;5072682;28;20029;-78
2022/05/18 12:45:26;;;;;;;60.20;26.98;;;22.60;93.70;;;;;;5072320;28;20068;-78
2022/05/18 12:48:09;;;;;;;70.95;30.85;;;23.80;93.60;;;;;;5055538;28;20079;-77
2022/05/18 12:50:41;;;;;;;59.47;27.38;;;23.50;93.70;;;;;;5055558;28;20045;-77
2022/05/18 12:53:23;;;;;;;72.63;27.73;;;23.30;93.90;;;;;;5072267;28;20047;-78
2022/05/18 12:56:29;;;;;;;71.97;29.67;;;23.60;93.20;;;;;;5072104;28;20542;-77
2022/05/18 12:59:01;;;;;;;61.50;26.48;;;23.10;93.80;;;;;;5058308;28;20400;-77
2022/05/18 13:01:34;;;;;;;60.60;25.80;;;23.10;94.10;;;;;;5072250;28;20040;-77
2022/05/18 13:04:06;;;;;;;66.88;29.30;;;21.70;93.80;;;;;;5072256;28;20380;-78
2022/05/18 13:06:39;;;;;;;66.43;27.45;;;22.60;91.30;;;;;;5072096;28;20028;-77
2022/05/18 13:09:26;;;;;;;62.05;26.85;;;22.70;94.30;;;;;;5055482;28;20149;-77
2022/05/18 13:11:57;;;;;;;66.82;25.30;;;21.00;88.20;;;;;;5055221;28;20098;-77
2022/05/18 13:14:24;;;;;;;49.50;23.10;;;;;;;;;;5072194;28;20389;-74
2022/05/18 13:16:49;;;;;;;63.03;25.60;;;22.00;94.40;;;;;;5071632;28;20053;-74
2022/05/18 13:19:16;;;;;;;57.38;24.08;;;;;;;;;;5071830;28;20063;-74
2022/05/18 13:21:53;;;;;;;53.75;25.52;;;22.90;94.20;;;;;;5071868;28;20595;-74
2022/05/18 13:24:43;;;;;;;56.38;25.05;;;22.10;90.30;;;;;;5071599;28;20493;-73
2022/05/18 13:27:19;;;;;;;57.85;23.95;;;22.60;94.50;;;;;;5070944;28;20170;-75
2022/05/18 13:29:47;;;;;;;57.17;23.17;;;21.70;92.30;;;;;;5055151;28;20573;-78
2022/05/18 13:32:17;;;;;;;59.05;24.50;;;21.80;94.60;;;;;;5055154;28;20033;-77
2022/05/18 13:35:26;;;;;;;50.70;23.65;;;22.00;94.70;;;;;;5055263;28;20041;-78
2022/05/18 13:38:19;;;;;;;56.55;26.15;;;21.40;94.30;;;;;;5071576;28;20119;-78
2022/05/18 13:40:49;;;;;;;51.20;22.02;;;21.80;90.70;;;;;;5054868;28;20550;-78
2022/05/18 13:43:17;;;;;;;51.75;22.73;;;22.40;94.80;;;;;;5072028;28;20098;-78
2022/05/18 13:46:01;;;;;;;51.25;21.60;;;20.80;90.10;;;;;;5071549;28;20515;-78
2022/05/18 13:48:27;;;;;;;49.00;21.40;;;21.90;90.60;;;;;;5071490;28;20044;-78